sensor_id;sensor_type;location;lat;lon;timestamp;pressure;altitude;pressure_sealevel;temperature;humidity
1832;BME280;1680;48.106;11.708;2023-04-03T00:02:18;96033.41;;;4.66;100.00
1832;BME280;1680;48.106;11.708;2023-04-03T00:04:45;96029.91;;;4.59;100.00
1832;BME280;1680;48.106;11.708;2023-04-03T00:07:13;96026.78;;;4.63;100.00
1832;BME280;1680;48.106;11.708;2023-04-03T00:09:40;96035.25;;;4.57;100.00
1832;BME280;1680;48.106;11.708;2023-04-03T00:12:07;96033.66;;;4.56;100.00
1832;BME280;1680;48.106;11.708;2023-04-03T00:14:37;96034.47;;;4.57;100.00
1832;BME280;1680;48.106;11.708;2023-04-03T00:17:04;96034.91;;;4.60;100.00
1832;BME280;1680;48.106;11.708;2023-04-03T00:19:32;96028.47;;;4.56;100.00
1832;BME280;1680;48.106;11.708;2023-04-03T00:21:59;96038.31;;;4.38;100.00
1832;BME280;1680;48.106;11.708;2023-04-03T00:24:26;96029.19;;;4.42;100.00
1832;BME280;1680;48.106;11.708;2023-04-03T00:26:54;96040.00;;;4.54;100.00
1832;BME280;1680;48.106;11.708;2023-04-03T00:29:21;96028.81;;;4.53;100.00
1832;BME280;1680;48.106;11.708;2023-04-03T00:31:50;96036.19;;;4.64;100.00
1832;BME280;1680;48.106;11.708;2023-04-03T00:34:17;96037.28;;;4.47;100.00
1832;BME280;1680;48.106;11.708;2023-04-03T00:36:45;96043.13;;;4.49;100.00
1832;BME280;1680;48.106;11.708;2023-04-03T00:39:12;96029.16;;;4.50;100.00
1832;BME280;1680;48.106;11.708;2023-04-03T00:41:39;96040.41;;;4.43;100.00
1832;BME280;1680;48.106;11.708;2023-04-03T00:44:21;96036.31;;;4.48;100.00
1832;BME280;1680;48.106;11.708;2023-04-03T00:46:50;96036.31;;;4.48;100.00
1832;BME280;1680;48.106;11.708;2023-04-03T00:49:17;96040.22;;;4.44;100.00
1832;BME280;1680;48.106;11.708;2023-04-03T00:51:45;96037.50;;;4.38;100.00
1832;BME280;1680;48.106;11.708;2023-04-03T00:54:12;96035.63;;;4.32;100.00
1832;BME280;1680;48.106;11.708;2023-04-03T00:56:40;96031.66;;;4.36;100.00
1832;BME280;1680;48.106;11.708;2023-04-03T00:59:10;96036.72;;;4.37;100.00
1832;BME280;1680;48.106;11.708;2023-04-03T01:01:39;96037.69;;;4.36;100.00
1832;BME280;1680;48.106;11.708;2023-04-03T01:04:29;96032.84;;;4.33;100.00
1832;BME280;1680;48.106;11.708;2023-04-03T01:06:59;96034.22;;;4.44;100.00
1832;BME280;1680;48.106;11.708;2023-04-03T01:09:28;96037.34;;;4.39;100.00
1832;BME280;1680;48.106;11.708;2023-04-03T01:12:14;96041.25;;;4.35;100.00
1832;BME280;1680;48.106;11.708;2023-04-03T01:14:42;96032.84;;;4.33;100.00
1832;BME280;1680;48.106;11.708;2023-04-03T01:17:27;96031.22;;;4.32;100.00
1832;BME280;1680;48.106;11.708;2023-04-03T01:20:31;96038.66;;;4.35;100.00
1832;BME280;1680;48.106;11.708;2023-04-03T01:23:16;96047.13;;;4.29;100.00
1832;BME280;1680;48.106;11.708;2023-04-03T01:25:50;96046.75;;;4.40;100.00
1832;BME280;1680;48.106;11.708;2023-04-03T01:28:20;96045.16;;;4.31;100.00
1832;BME280;1680;48.106;11.708;2023-04-03T01:30:51;96038.53;;;4.29;100.00
1832;BME280;1680;48.106;11.708;2023-04-03T01:33:22;96043.63;;;4.22;100.00
1832;BME280;1680;48.106;11.708;2023-04-03T01:35:49;96046.25;;;4.14;100.00
1832;BME280;1680;48.106;11.708;2023-04-03T01:38:16;96041.94;;;4.29;100.00
1832;BME280;1680;48.106;11.708;2023-04-03T01:40:43;96048.47;;;4.25;100.00
1832;BME280;1680;48.106;11.708;2023-04-03T01:43:11;96040.31;;;4.28;100.00
1832;BME280;1680;48.106;11.708;2023-04-03T01:45:38;96046.63;;;4.34;100.00
1832;BME280;1680;48.106;11.708;2023-04-03T01:48:06;96039.97;;;4.31;100.00
1832;BME280;1680;48.106;11.708;2023-04-03T01:50:35;96044.16;;;4.40;100.00
1832;BME280;1680;48.106;11.708;2023-04-03T01:53:02;96042.16;;;4.42;100.00
1832;BME280;1680;48.106;11.708;2023-04-03T01:55:29;96040.94;;;4.38;100.00
1832;BME280;1680;48.106;11.708;2023-04-03T01:57:56;96038.66;;;4.35;100.00
1832;BME280;1680;48.106;11.708;2023-04-03T02:00:24;96044.03;;;4.34;100.00
1832;BME280;1680;48.106;11.708;2023-04-03T02:02:52;96041.44;;;4.34;100.00
1832;BME280;1680;48.106;11.708;2023-04-03T02:05:19;96044.44;;;4.45;100.00
1832;BME280;1680;48.106;11.708;2023-04-03T02:07:48;96042.78;;;4.52;100.00
1832;BME280;1680;48.106;11.708;2023-04-03T02:10:15;96043.13;;;4.49;100.00
1832;BME280;1680;48.106;11.708;2023-04-03T02:12:43;96044.66;;;4.58;100.00
1832;BME280;1680;48.106;11.708;2023-04-03T02:15:10;96040.53;;;4.49;100.00
1832;BME280;1680;48.106;11.708;2023-04-03T02:17:38;96039.75;;;4.41;100.00
1832;BME280;1680;48.106;11.708;2023-04-03T02:20:06;96043.75;;;4.51;100.00
1832;BME280;1680;48.106;11.708;2023-04-03T02:22:34;95996.25;;;4.20;100.00
1832;BME280;1680;48.106;11.708;2023-04-03T02:25:03;96035.66;;;4.46;100.00
1832;BME280;1680;48.106;11.708;2023-04-03T02:27:30;96040.81;;;4.54;100.00
1832;BME280;1680;48.106;11.708;2023-04-03T02:29:58;96034.81;;;4.54;100.00
1832;BME280;1680;48.106;11.708;2023-04-03T02:32:25;96039.84;;;4.55;100.00
1832;BME280;1680;48.106;11.708;2023-04-03T02:34:52;96043.97;;;4.42;100.00
1832;BME280;1680;48.106;11.708;2023-04-03T02:37:19;96033.88;;;4.47;100.00
1832;BME280;1680;48.106;11.708;2023-04-03T02:39:47;96038.38;;;4.53;100.00
1832;BME280;1680;48.106;11.708;2023-04-03T02:42:15;96034.47;;;4.57;100.00
1832;BME280;1680;48.106;11.708;2023-04-03T02:44:43;96038.38;;;4.53;100.00
1832;BME280;1680;48.106;11.708;2023-04-03T02:47:10;96034.00;;;4.53;100.00
1832;BME280;1680;48.106;11.708;2023-04-03T02:49:38;96035.63;;;4.54;100.00
1832;BME280;1680;48.106;11.708;2023-04-03T02:52:05;96040.34;;;4.51;100.00
1832;BME280;1680;48.106;11.708;2023-04-03T02:54:32;96038.56;;;4.51;100.00
1832;BME280;1680;48.106;11.708;2023-04-03T02:57:02;96043.13;;;4.49;100.00
1832;BME280;1680;48.106;11.708;2023-04-03T02:59:31;96031.44;;;4.45;100.00
1832;BME280;1680;48.106;11.708;2023-04-03T03:01:58;96031.22;;;4.55;100.00
1832;BME280;1680;48.106;11.708;2023-04-03T03:04:26;95987.28;;;4.31;100.00
1832;BME280;1680;48.106;11.708;2023-04-03T03:06:53;96042.66;;;4.68;100.00
1832;BME280;1680;48.106;11.708;2023-04-03T03:09:20;96040.44;;;4.57;100.00
1832;BME280;1680;48.106;11.708;2023-04-03T03:11:48;96043.56;;;4.53;100.00
1832;BME280;1680;48.106;11.708;2023-04-03T03:14:15;96042.06;;;4.58;100.00
1832;BME280;1680;48.106;11.708;2023-04-03T03:16:44;96043.41;;;4.54;100.00
1832;BME280;1680;48.106;11.708;2023-04-03T03:19:11;96042.06;;;4.58;100.00
1832;BME280;1680;48.106;11.708;2023-04-03T03:21:39;96049.41;;;4.55;100.00
1832;BME280;1680;48.106;11.708;2023-04-03T03:24:06;96039.94;;;4.62;100.00
1832;BME280;1680;48.106;11.708;2023-04-03T03:26:34;96046.00;;;4.54;100.00
1832;BME280;1680;48.106;11.708;2023-04-03T03:29:01;96044.72;;;4.50;100.00
1832;BME280;1680;48.106;11.708;2023-04-03T03:31:29;96045.41;;;4.44;100.00
1832;BME280;1680;48.106;11.708;2023-04-03T03:33:57;96052.56;;;4.42;100.00
1832;BME280;1680;48.106;11.708;2023-04-03T03:36:24;96046.78;;;4.32;100.00
1832;BME280;1680;48.106;11.708;2023-04-03T03:38:52;96047.38;;;4.42;100.00
1832;BME280;1680;48.106;11.708;2023-04-03T03:41:19;96048.66;;;4.46;100.00
1832;BME280;1680;48.106;11.708;2023-04-03T03:43:46;95974.44;;;4.07;100.00
1832;BME280;1680;48.106;11.708;2023-04-03T03:46:14;96044.44;;;4.45;100.00
1832;BME280;1680;48.106;11.708;2023-04-03T03:48:41;96044.44;;;4.45;100.00
1832;BME280;1680;48.106;11.708;2023-04-03T03:51:09;96046.69;;;4.48;100.00
1832;BME280;1680;48.106;11.708;2023-04-03T03:53:37;96044.41;;;4.53;100.00
1832;BME280;1680;48.106;11.708;2023-04-03T03:56:04;96035.41;;;4.41;100.00
1832;BME280;1680;48.106;11.708;2023-04-03T03:58:32;96045.06;;;4.47;100.00
1832;BME280;1680;48.106;11.708;2023-04-03T04:01:00;96036.97;;;4.42;100.00
1832;BME280;1680;48.106;11.708;2023-04-03T04:03:28;96037.13;;;4.49;100.00
1832;BME280;1680;48.106;11.708;2023-04-03T04:05:55;96043.78;;;4.43;100.00
1832;BME280;1680;48.106;11.708;2023-04-03T04:08:24;96033.94;;;4.39;100.00
1832;BME280;1680;48.106;11.708;2023-04-03T04:10:51;96042.34;;;4.41;100.00
1832;BME280;1680;48.106;11.708;2023-04-03T04:13:19;96041.16;;;4.51;100.00
1832;BME280;1680;48.106;11.708;2023-04-03T04:15:46;96043.41;;;4.54;100.00
1832;BME280;1680;48.106;11.708;2023-04-03T04:18:13;96040.22;;;4.44;100.00
1832;BME280;1680;48.106;11.708;2023-04-03T04:20:40;96046.75;;;4.40;100.00
1832;BME280;1680;48.106;11.708;2023-04-03T04:23:08;95921.00;;;3.68;100.00
1832;BME280;1680;48.106;11.708;2023-04-03T04:25:36;96034.75;;;4.39;100.00
1832;BME280;1680;48.106;11.708;2023-04-03T04:28:04;96046.75;;;4.40;100.00
1832;BME280;1680;48.106;11.708;2023-04-03T04:30:31;96042.56;;;4.31;100.00
1832;BME280;1680;48.106;11.708;2023-04-03T04:32:59;96049.50;;;4.39;100.00
1832;BME280;1680;48.106;11.708;2023-04-03T04:35:26;96046.22;;;4.45;100.00
1832;BME280;1680;48.106;11.708;2023-04-03T04:37:53;96043.88;;;4.27;100.00
1832;BME280;1680;48.106;11.708;2023-04-03T04:40:21;96046.00;;;4.32;100.00
1832;BME280;1680;48.106;11.708;2023-04-03T04:42:49;96044.53;;;4.29;100.00
1832;BME280;1680;48.106;11.708;2023-04-03T04:45:17;96047.50;;;4.26;100.00
1832;BME280;1680;48.106;11.708;2023-04-03T04:47:45;96047.56;;;4.41;100.00
1832;BME280;1680;48.106;11.708;2023-04-03T04:50:12;96053.25;;;4.36;100.00
1832;BME280;1680;48.106;11.708;2023-04-03T04:52:40;96056.31;;;4.40;100.00
1832;BME280;1680;48.106;11.708;2023-04-03T04:55:07;96052.44;;;4.36;100.00
1832;BME280;1680;48.106;11.708;2023-04-03T04:57:35;96055.56;;;4.31;100.00
1832;BME280;1680;48.106;11.708;2023-04-03T05:00:09;96052.69;;;4.26;100.00
1832;BME280;1680;48.106;11.708;2023-04-03T05:02:36;96060.97;;;4.22;100.00
1832;BME280;1680;48.106;11.708;2023-04-03T05:05:04;96058.78;;;4.33;100.00
1832;BME280;1680;48.106;11.708;2023-04-03T05:07:31;96051.41;;;4.22;100.00
1832;BME280;1680;48.106;11.708;2023-04-03T05:09:58;96057.91;;;4.18;100.00
1832;BME280;1680;48.106;11.708;2023-04-03T05:12:25;96056.25;;;4.25;100.00
1832;BME280;1680;48.106;11.708;2023-04-03T05:14:53;96057.50;;;4.29;100.00
1832;BME280;1680;48.106;11.708;2023-04-03T05:17:21;96058.78;;;4.33;100.00
1832;BME280;1680;48.106;11.708;2023-04-03T05:19:48;96067.56;;;4.32;100.00
1832;BME280;1680;48.106;11.708;2023-04-03T05:22:16;96070.25;;;4.47;100.00
1832;BME280;1680;48.106;11.708;2023-04-03T05:24:43;96063.78;;;4.43;100.00
1832;BME280;1680;48.106;11.708;2023-04-03T05:27:10;96063.66;;;4.36;100.00
1832;BME280;1680;48.106;11.708;2023-04-03T05:29:37;96071.38;;;4.44;100.00
1832;BME280;1680;48.106;11.708;2023-04-03T05:32:05;96069.31;;;4.40;100.00
1832;BME280;1680;48.106;11.708;2023-04-03T05:34:33;96068.38;;;4.33;100.00
1832;BME280;1680;48.106;11.708;2023-04-03T05:37:00;96072.75;;;4.32;100.00
1832;BME280;1680;48.106;11.708;2023-04-03T05:39:29;96069.16;;;4.41;100.00
1832;BME280;1680;48.106;11.708;2023-04-03T05:41:57;96066.19;;;4.44;100.00
1832;BME280;1680;48.106;11.708;2023-04-03T05:44:24;96078.69;;;4.49;100.00
1832;BME280;1680;48.106;11.708;2023-04-03T05:46:51;96071.38;;;4.44;100.00
1832;BME280;1680;48.106;11.708;2023-04-03T05:49:19;96076.81;;;4.57;100.00
1832;BME280;1680;48.106;11.708;2023-04-03T05:51:47;96076.78;;;4.65;100.00
1832;BME280;1680;48.106;11.708;2023-04-03T05:54:17;96068.03;;;4.58;100.00
1832;BME280;1680;48.106;11.708;2023-04-03T05:56:46;96074.56;;;4.54;100.00
1832;BME280;1680;48.106;11.708;2023-04-03T05:59:13;96083.59;;;4.66;100.00
1832;BME280;1680;48.106;11.708;2023-04-03T06:01:40;96075.56;;;4.53;100.00
1832;BME280;1680;48.106;11.708;2023-04-03T06:04:08;96084.91;;;4.62;100.00
1832;BME280;1680;48.106;11.708;2023-04-03T06:06:47;96078.44;;;4.58;100.00
1832;BME280;1680;48.106;11.708;2023-04-03T06:09:15;96093.41;;;4.56;100.00
1832;BME280;1680;48.106;11.708;2023-04-03T06:11:43;96082.16;;;4.64;100.00
1832;BME280;1680;48.106;11.708;2023-04-03T06:14:11;96089.41;;;4.68;100.00
1832;BME280;1680;48.106;11.708;2023-04-03T06:16:39;96028.63;;;4.32;100.00
1832;BME280;1680;48.106;11.708;2023-04-03T06:19:06;96091.69;;;4.71;100.00
1832;BME280;1680;48.106;11.708;2023-04-03T06:21:34;96089.13;;;4.63;100.00
1832;BME280;1680;48.106;11.708;2023-04-03T06:24:03;96097.03;;;4.70;100.00
1832;BME280;1680;48.106;11.708;2023-04-03T06:26:31;96092.94;;;4.75;100.00
1832;BME280;1680;48.106;11.708;2023-04-03T06:28:59;96088.72;;;4.74;100.00
1832;BME280;1680;48.106;11.708;2023-04-03T06:31:27;96095.69;;;4.96;100.00
1832;BME280;1680;48.106;11.708;2023-04-03T06:33:55;96043.03;;;4.57;100.00
1832;BME280;1680;48.106;11.708;2023-04-03T06:36:22;96091.50;;;4.95;100.00
1832;BME280;1680;48.106;11.708;2023-04-03T06:38:50;96097.66;;;4.94;99.36
1832;BME280;1680;48.106;11.708;2023-04-03T06:41:18;96104.78;;;5.00;99.05
1832;BME280;1680;48.106;11.708;2023-04-03T06:43:47;96092.13;;;4.97;98.39
1832;BME280;1680;48.106;11.708;2023-04-03T06:46:14;96104.13;;;4.98;98.56
1832;BME280;1680;48.106;11.708;2023-04-03T06:48:43;96097.72;;;5.08;97.71
1832;BME280;1680;48.106;11.708;2023-04-03T06:51:19;96093.91;;;4.96;97.95
1832;BME280;1680;48.106;11.708;2023-04-03T06:53:48;96105.47;;;4.94;97.83
1832;BME280;1680;48.106;11.708;2023-04-03T06:56:16;96106.41;;;5.01;98.01
1832;BME280;1680;48.106;11.708;2023-04-03T06:58:45;96107.25;;;5.16;97.20
1832;BME280;1680;48.106;11.708;2023-04-03T07:01:15;96111.47;;;5.17;97.60
1832;BME280;1680;48.106;11.708;2023-04-03T07:03:44;96108.44;;;5.28;100.00
1832;BME280;1680;48.106;11.708;2023-04-03T07:06:14;96105.22;;;5.26;97.70
1832;BME280;1680;48.106;11.708;2023-04-03T07:08:42;96110.84;;;5.29;96.28
1832;BME280;1680;48.106;11.708;2023-04-03T07:11:10;96121.22;;;5.52;94.12
1832;BME280;1680;48.106;11.708;2023-04-03T07:13:38;96117.97;;;5.50;93.50
1832;BME280;1680;48.106;11.708;2023-04-03T07:16:07;96114.03;;;5.39;92.76
1832;BME280;1680;48.106;11.708;2023-04-03T07:18:35;96126.50;;;5.44;91.18
1832;BME280;1680;48.106;11.708;2023-04-03T07:21:03;96121.78;;;5.25;89.75
1832;BME280;1680;48.106;11.708;2023-04-03T07:23:32;96125.72;;;5.21;92.47
1832;BME280;1680;48.106;11.708;2023-04-03T07:25:59;96126.00;;;5.26;93.55
1832;BME280;1680;48.106;11.708;2023-04-03T07:28:27;96129.78;;;5.38;92.15
1832;BME280;1680;48.106;11.708;2023-04-03T07:30:59;96127.47;;;5.43;91.24
1832;BME280;1680;48.106;11.708;2023-04-03T07:33:29;96130.72;;;5.45;93.14
1832;BME280;1680;48.106;11.708;2023-04-03T07:35:56;96131.72;;;5.44;92.57
1832;BME280;1680;48.106;11.708;2023-04-03T07:38:23;96141.75;;;5.47;93.66
1832;BME280;1680;48.106;11.708;2023-04-03T07:40:51;96129.09;;;5.44;92.72
1832;BME280;1680;48.106;11.708;2023-04-03T07:43:20;96147.16;;;5.60;90.70
1832;BME280;1680;48.106;11.708;2023-04-03T07:45:48;96140.41;;;5.51;90.82
1832;BME280;1680;48.106;11.708;2023-04-03T07:48:17;96143.97;;;5.50;90.79
1832;BME280;1680;48.106;11.708;2023-04-03T07:50:45;96152.13;;;5.32;92.48
1832;BME280;1680;48.106;11.708;2023-04-03T07:53:13;96150.59;;;5.38;93.20
1832;BME280;1680;48.106;11.708;2023-04-03T07:55:40;96144.63;;;5.52;93.96
1832;BME280;1680;48.106;11.708;2023-04-03T07:58:09;96153.59;;;5.49;93.16
1832;BME280;1680;48.106;11.708;2023-04-03T08:00:37;96147.56;;;5.49;91.24
1832;BME280;1680;48.106;11.708;2023-04-03T08:03:05;96158.81;;;5.27;92.09
1832;BME280;1680;48.106;11.708;2023-04-03T08:05:36;96157.75;;;5.36;91.04
1832;BME280;1680;48.106;11.708;2023-04-03T08:08:06;96149.44;;;5.40;92.05
1832;BME280;1680;48.106;11.708;2023-04-03T08:10:33;96161.56;;;5.48;92.03
1832;BME280;1680;48.106;11.708;2023-04-03T08:13:01;96112.47;;;5.30;90.58
1832;BME280;1680;48.106;11.708;2023-04-03T08:15:30;96154.63;;;5.40;92.90
1832;BME280;1680;48.106;11.708;2023-04-03T08:17:57;96147.31;;;5.44;91.77
1832;BME280;1680;48.106;11.708;2023-04-03T08:20:24;96155.94;;;5.22;92.55
1832;BME280;1680;48.106;11.708;2023-04-03T08:22:52;96156.63;;;5.38;92.34
1832;BME280;1680;48.106;11.708;2023-04-03T08:25:20;96161.06;;;5.52;93.21
1832;BME280;1680;48.106;11.708;2023-04-03T08:27:48;96154.97;;;5.74;89.80
1832;BME280;1680;48.106;11.708;2023-04-03T08:30:15;96162.47;;;5.77;89.38
1832;BME280;1680;48.106;11.708;2023-04-03T08:32:43;96157.66;;;5.88;89.46
1832;BME280;1680;48.106;11.708;2023-04-03T08:35:11;96096.31;;;5.72;87.98
1832;BME280;1680;48.106;11.708;2023-04-03T08:37:39;96158.19;;;6.13;88.59
1832;BME280;1680;48.106;11.708;2023-04-03T08:40:10;96156.50;;;6.05;85.57
1832;BME280;1680;48.106;11.708;2023-04-03T08:42:48;96155.94;;;6.10;85.30
1832;BME280;1680;48.106;11.708;2023-04-03T08:45:25;96171.38;;;6.11;87.12
1832;BME280;1680;48.106;11.708;2023-04-03T08:47:58;96161.88;;;6.18;87.27
1832;BME280;1680;48.106;11.708;2023-04-03T08:50:30;96161.53;;;6.21;87.49
1832;BME280;1680;48.106;11.708;2023-04-03T08:53:01;96164.44;;;6.33;85.84
1832;BME280;1680;48.106;11.708;2023-04-03T08:55:34;96170.03;;;6.30;85.31
1832;BME280;1680;48.106;11.708;2023-04-03T08:58:07;96174.09;;;6.32;85.75
1832;BME280;1680;48.106;11.708;2023-04-03T09:00:43;96171.19;;;6.42;83.80
1832;BME280;1680;48.106;11.708;2023-04-03T09:03:13;96168.22;;;6.45;84.89
1832;BME280;1680;48.106;11.708;2023-04-03T09:05:45;96170.19;;;6.57;84.86
1832;BME280;1680;48.106;11.708;2023-04-03T09:08:24;96171.59;;;6.74;86.07
1832;BME280;1680;48.106;11.708;2023-04-03T09:11:04;96164.50;;;7.03;83.68
1832;BME280;1680;48.106;11.708;2023-04-03T09:13:43;96071.31;;;6.35;80.80
1832;BME280;1680;48.106;11.708;2023-04-03T09:16:20;96177.22;;;6.92;81.71
1832;BME280;1680;48.106;11.708;2023-04-03T09:18:52;96166.94;;;6.90;82.87
1832;BME280;1680;48.106;11.708;2023-04-03T09:21:27;96173.97;;;6.90;81.00
1832;BME280;1680;48.106;11.708;2023-04-03T09:23:59;96170.97;;;6.72;80.91
1832;BME280;1680;48.106;11.708;2023-04-03T09:26:32;96164.22;;;6.77;81.03
1832;BME280;1680;48.106;11.708;2023-04-03T09:29:06;96168.97;;;6.74;79.88
1832;BME280;1680;48.106;11.708;2023-04-03T09:31:37;96174.91;;;6.68;80.40
1832;BME280;1680;48.106;11.708;2023-04-03T09:34:08;96160.88;;;6.48;80.87
1832;BME280;1680;48.106;11.708;2023-04-03T09:36:41;96174.44;;;6.29;81.52
1832;BME280;1680;48.106;11.708;2023-04-03T09:39:13;96167.34;;;6.38;83.29
1832;BME280;1680;48.106;11.708;2023-04-03T09:41:42;96162.66;;;6.48;81.30
1832;BME280;1680;48.106;11.708;2023-04-03T09:44:25;96169.66;;;6.47;82.12
1832;BME280;1680;48.106;11.708;2023-04-03T09:46:52;96167.25;;;6.31;83.82
1832;BME280;1680;48.106;11.708;2023-04-03T09:49:20;96173.09;;;6.33;83.51
1832;BME280;1680;48.106;11.708;2023-04-03T09:51:47;96176.13;;;6.51;82.13
1832;BME280;1680;48.106;11.708;2023-04-03T09:54:30;96164.81;;;6.59;83.66
1832;BME280;1680;48.106;11.708;2023-04-03T09:57:01;96172.06;;;6.63;79.68
1832;BME280;1680;48.106;11.708;2023-04-03T09:59:33;96164.50;;;6.68;80.65
1832;BME280;1680;48.106;11.708;2023-04-03T10:02:02;96169.13;;;6.52;83.40
1832;BME280;1680;48.106;11.708;2023-04-03T10:04:41;96165.38;;;6.75;80.62
1832;BME280;1680;48.106;11.708;2023-04-03T10:07:27;96169.25;;;6.79;79.30
1832;BME280;1680;48.106;11.708;2023-04-03T10:09:56;96167.81;;;6.76;78.69
1832;BME280;1680;48.106;11.708;2023-04-03T10:12:23;96165.91;;;6.85;79.59
1832;BME280;1680;48.106;11.708;2023-04-03T10:14:56;96159.06;;;6.84;78.20
1832;BME280;1680;48.106;11.708;2023-04-03T10:17:33;96159.56;;;6.73;78.48
1832;BME280;1680;48.106;11.708;2023-04-03T10:20:09;96158.69;;;6.66;78.01
1832;BME280;1680;48.106;11.708;2023-04-03T10:22:49;96154.69;;;6.84;78.10
1832;BME280;1680;48.106;11.708;2023-04-03T10:25:25;96157.31;;;6.70;79.59
1832;BME280;1680;48.106;11.708;2023-04-03T10:27:58;96161.34;;;7.08;79.22
1832;BME280;1680;48.106;11.708;2023-04-03T10:30:37;96148.78;;;6.97;80.92
1832;BME280;1680;48.106;11.708;2023-04-03T10:33:20;96167.06;;;7.18;75.43
1832;BME280;1680;48.106;11.708;2023-04-03T10:36:01;96153.94;;;7.11;77.08
1832;BME280;1680;48.106;11.708;2023-04-03T10:38:38;96161.94;;;6.89;79.22
1832;BME280;1680;48.106;11.708;2023-04-03T10:41:14;96158.84;;;6.65;81.32
1832;BME280;1680;48.106;11.708;2023-04-03T10:43:49;96166.06;;;6.48;82.39
1832;BME280;1680;48.106;11.708;2023-04-03T10:46:27;96162.22;;;6.44;86.90
1832;BME280;1680;48.106;11.708;2023-04-03T10:49:08;96167.09;;;6.18;85.99
1832;BME280;1680;48.106;11.708;2023-04-03T10:51:43;96170.31;;;5.91;86.07
1832;BME280;1680;48.106;11.708;2023-04-03T10:54:13;96171.44;;;5.89;86.48
1832;BME280;1680;48.106;11.708;2023-04-03T10:56:47;96170.28;;;5.77;86.53
1832;BME280;1680;48.106;11.708;2023-04-03T10:59:18;96169.75;;;5.59;86.27
1832;BME280;1680;48.106;11.708;2023-04-03T11:01:51;96170.00;;;5.50;88.13
1832;BME280;1680;48.106;11.708;2023-04-03T11:04:21;96167.78;;;5.47;89.07
1832;BME280;1680;48.106;11.708;2023-04-03T11:06:52;96169.09;;;5.43;89.86
1832;BME280;1680;48.106;11.708;2023-04-03T11:09:26;96173.69;;;5.55;87.53
1832;BME280;1680;48.106;11.708;2023-04-03T11:11:59;96175.81;;;5.37;85.86
1832;BME280;1680;48.106;11.708;2023-04-03T11:14:29;96175.50;;;5.32;86.60
1832;BME280;1680;48.106;11.708;2023-04-03T11:17:07;96172.78;;;5.48;86.49
1832;BME280;1680;48.106;11.708;2023-04-03T11:19:42;96158.34;;;5.46;88.50
1832;BME280;1680;48.106;11.708;2023-04-03T11:22:22;96158.91;;;5.56;86.54
1832;BME280;1680;48.106;11.708;2023-04-03T11:24:57;96158.91;;;5.56;86.06
1832;BME280;1680;48.106;11.708;2023-04-03T11:27:27;96149.66;;;5.53;83.09
1832;BME280;1680;48.106;11.708;2023-04-03T11:29:59;96156.72;;;5.45;83.21
1832;BME280;1680;48.106;11.708;2023-04-03T11:32:38;96150.41;;;5.62;82.55
1832;BME280;1680;48.106;11.708;2023-04-03T11:35:09;96147.84;;;5.54;85.27
1832;BME280;1680;48.106;11.708;2023-04-03T11:37:39;96151.84;;;5.64;85.29
1832;BME280;1680;48.106;11.708;2023-04-03T11:40:23;96158.41;;;5.74;83.12
1832;BME280;1680;48.106;11.708;2023-04-03T11:42:53;96154.13;;;5.81;80.98
1832;BME280;1680;48.106;11.708;2023-04-03T11:45:31;96152.59;;;5.87;78.96
1832;BME280;1680;48.106;11.708;2023-04-03T11:48:02;96147.31;;;5.80;80.80
1832;BME280;1680;48.106;11.708;2023-04-03T11:50:37;96152.44;;;5.88;77.77
1832;BME280;1680;48.106;11.708;2023-04-03T11:53:26;96145.50;;;5.95;77.84
1832;BME280;1680;48.106;11.708;2023-04-03T11:55:59;96150.19;;;6.14;77.00
1832;BME280;1680;48.106;11.708;2023-04-03T11:58:28;96141.69;;;6.20;78.38
1832;BME280;1680;48.106;11.708;2023-04-03T12:06:52;96137.97;;;6.29;73.45
1832;BME280;1680;48.106;11.708;2023-04-03T12:12:33;96134.38;;;6.30;71.69
1832;BME280;1680;48.106;11.708;2023-04-03T12:15:19;96125.03;;;6.50;72.28
1832;BME280;1680;48.106;11.708;2023-04-03T12:17:48;96125.03;;;6.50;75.07
1832;BME280;1680;48.106;11.708;2023-04-03T12:20:55;96131.28;;;6.56;74.81
1832;BME280;1680;48.106;11.708;2023-04-03T12:23:29;96121.66;;;6.71;74.01
1832;BME280;1680;48.106;11.708;2023-04-03T12:26:05;96117.81;;;6.87;69.71
1832;BME280;1680;48.106;11.708;2023-04-03T12:28:48;96118.66;;;6.94;70.86
1832;BME280;1680;48.106;11.708;2023-04-03T12:31:19;96128.56;;;7.20;69.40
1832;BME280;1680;48.106;11.708;2023-04-03T12:34:01;96131.66;;;7.30;70.71
1832;BME280;1680;48.106;11.708;2023-04-03T12:36:39;96121.09;;;7.38;72.46
1832;BME280;1680;48.106;11.708;2023-04-03T12:39:25;96118.84;;;7.56;69.81
1832;BME280;1680;48.106;11.708;2023-04-03T12:42:10;96120.53;;;7.69;66.38
1832;BME280;1680;48.106;11.708;2023-04-03T12:44:51;96122.25;;;7.83;65.19
1832;BME280;1680;48.106;11.708;2023-04-03T12:47:27;96118.06;;;7.89;66.51
1832;BME280;1680;48.106;11.708;2023-04-03T12:49:55;96113.97;;;7.80;66.81
1832;BME280;1680;48.106;11.708;2023-04-03T12:52:32;96108.63;;;7.88;70.20
1832;BME280;1680;48.106;11.708;2023-04-03T12:55:02;96107.75;;;8.15;67.32
1832;BME280;1680;48.106;11.708;2023-04-03T12:57:30;96101.09;;;8.06;70.57
1832;BME280;1680;48.106;11.708;2023-04-03T12:59:59;96102.66;;;8.00;69.54
1832;BME280;1680;48.106;11.708;2023-04-03T13:02:27;96103.22;;;8.23;67.60
1832;BME280;1680;48.106;11.708;2023-04-03T13:04:56;96108.06;;;8.26;64.41
1832;BME280;1680;48.106;11.708;2023-04-03T13:07:28;96096.91;;;8.11;62.93
1832;BME280;1680;48.106;11.708;2023-04-03T13:10:09;96099.03;;;8.35;63.53
1832;BME280;1680;48.106;11.708;2023-04-03T13:12:47;96103.28;;;8.43;62.89
1832;BME280;1680;48.106;11.708;2023-04-03T13:15:17;96096.47;;;8.48;59.14
1832;BME280;1680;48.106;11.708;2023-04-03T13:17:45;96092.47;;;8.52;60.15
1832;BME280;1680;48.106;11.708;2023-04-03T13:20:20;96035.22;;;8.10;61.26
1832;BME280;1680;48.106;11.708;2023-04-03T13:22:52;96083.38;;;8.35;59.51
1832;BME280;1680;48.106;11.708;2023-04-03T13:25:23;95862.56;;;7.33;57.34
1832;BME280;1680;48.106;11.708;2023-04-03T13:27:51;96087.94;;;8.80;57.75
1832;BME280;1680;48.106;11.708;2023-04-03T13:30:23;96081.69;;;8.81;61.31
1832;BME280;1680;48.106;11.708;2023-04-03T13:32:52;96077.53;;;9.58;59.05
1832;BME280;1680;48.106;11.708;2023-04-03T13:35:31;96067.66;;;9.60;55.40
1832;BME280;1680;48.106;11.708;2023-04-03T13:38:01;96079.78;;;9.28;53.50
1832;BME280;1680;48.106;11.708;2023-04-03T13:40:30;96076.94;;;9.43;56.80
1832;BME280;1680;48.106;11.708;2023-04-03T13:43:05;96080.16;;;9.19;55.66
1832;BME280;1680;48.106;11.708;2023-04-03T13:45:34;96081.03;;;8.53;56.33